Time;durP1;ratioP1;P1;durP2;ratioP2;P2;SDS_P1;SDS_P2;PMS_P1;PMS_P2;Temp;Humidity;BMP_temperature;BMP_pressure;BME280_temperature;BME280_humidity;BME280_pressure;Samples;Min_cycle;Max_cycle;Signal;HPM_P1;HPM_P2
2023/06/06 00:01:27;;;;;;;2.55;2.35;;;16.10;99.90;;;;;;5093754;28;20312;-77
2023/06/06 00:03:56;;;;;;;2.53;2.42;;;16.20;99.90;;;;;;5092320;28;20213;-76
2023/06/06 00:06:24;;;;;;;2.70;2.50;;;16.10;99.90;;;;;;5093824;28;20220;-76
2023/06/06 00:08:52;;;;;;;2.13;2.03;;;16.10;99.90;;;;;;5090172;28;20263;-77
2023/06/06 00:11:20;;;;;;;2.50;2.33;;;16.10;99.90;;;;;;5092687;28;20718;-76
2023/06/06 00:13:49;;;;;;;2.10;2.00;;;16.10;99.90;;;;;;5094986;28;20964;-76
2023/06/06 00:16:16;;;;;;;2.22;2.08;;;16.10;99.90;;;;;;5089866;28;20292;-77
2023/06/06 00:18:45;;;;;;;2.30;2.20;;;16.10;99.90;;;;;;5094590;28;20197;-76
2023/06/06 00:21:13;;;;;;;2.03;1.92;;;16.00;99.90;;;;;;5095164;28;20232;-78
2023/06/06 00:23:40;;;;;;;2.75;2.55;;;16.00;99.90;;;;;;5090009;28;20237;-77
2023/06/06 00:26:07;;;;;;;2.40;2.20;;;16.00;99.90;;;;;;5091040;28;20281;-76
2023/06/06 00:28:34;;;;;;;2.30;2.20;;;16.00;99.90;;;;;;5094699;28;20235;-77
2023/06/06 00:31:01;;;;;;;2.20;2.10;;;16.00;99.90;;;;;;5093084;28;20310;-76
2023/06/06 00:33:28;;;;;;;2.55;2.35;;;16.00;99.90;;;;;;5091833;28;20197;-76
2023/06/06 00:35:55;;;;;;;2.50;2.40;;;16.00;99.90;;;;;;5091404;28;20778;-76
2023/06/06 00:38:23;;;;;;;2.33;2.22;;;16.00;99.90;;;;;;5094218;28;20737;-77
2023/06/06 00:40:51;;;;;;;2.30;2.20;;;16.00;99.90;;;;;;5094050;28;20255;-76
2023/06/06 00:43:17;;;;;;;2.20;2.10;;;16.00;99.90;;;;;;5092954;28;20208;-76
2023/06/06 00:45:44;;;;;;;2.58;2.38;;;16.00;99.90;;;;;;5091465;28;20213;-76
2023/06/06 00:48:12;;;;;;;2.20;2.10;;;16.00;99.90;;;;;;5092036;28;20201;-76
2023/06/06 00:50:40;;;;;;;2.13;2.00;;;16.00;99.90;;;;;;5089666;28;20256;-78
2023/06/06 00:53:08;;;;;;;2.20;2.10;;;16.00;99.90;;;;;;5093892;28;20201;-76
2023/06/06 00:55:38;;;;;;;2.25;2.15;;;16.10;99.90;;;;;;5089248;28;20258;-77
2023/06/06 00:58:06;;;;;;;2.38;2.28;;;16.10;99.90;;;;;;5091747;28;20209;-76
2023/06/06 01:00:33;;;;;;;2.40;2.30;;;16.00;99.90;;;;;;5095144;28;20266;-77
2023/06/06 01:03:03;;;;;;;2.30;2.20;;;16.00;99.90;;;;;;5089577;28;20609;-78
2023/06/06 01:05:30;;;;;;;2.35;2.20;;;16.00;99.90;;;;;;5089529;28;20225;-76
2023/06/06 01:07:57;;;;;;;2.40;2.30;;;16.00;99.90;;;;;;5089557;28;20227;-75
2023/06/06 01:10:24;;;;;;;2.40;2.30;;;16.00;99.90;;;;;;5094124;28;20232;-76
2023/06/06 01:13:00;;;;;;;2.53;2.33;;;15.90;99.90;;;;;;5093337;28;20194;-76
2023/06/06 01:15:36;;;;;;;2.60;2.47;;;15.90;99.90;;;;;;5094230;28;20193;-75
2023/06/06 01:18:05;;;;;;;2.30;2.10;;;15.90;99.90;;;;;;5094890;28;20201;-76
2023/06/06 01:20:34;;;;;;;2.28;2.17;;;15.90;99.90;;;;;;5091893;28;20746;-77
2023/06/06 01:23:02;;;;;;;2.55;2.35;;;15.90;99.90;;;;;;5093811;28;20190;-77
2023/06/06 01:25:29;;;;;;;2.83;2.70;;;16.00;99.90;;;;;;5097867;28;20278;-76
2023/06/06 01:27:58;;;;;;;2.42;2.33;;;16.00;99.90;;;;;;5091422;28;20225;-76
2023/06/06 01:30:27;;;;;;;2.92;2.72;;;16.00;99.90;;;;;;5099568;28;20217;-77
2023/06/06 01:33:03;;;;;;;2.70;2.50;;;16.00;99.90;;;;;;5099083;28;20591;-76
2023/06/06 01:35:41;;;;;;;2.75;2.55;;;16.00;99.90;;;;;;5094514;28;20201;-76
2023/06/06 01:38:13;;;;;;;3.20;2.80;;;16.00;99.90;;;;;;5092907;28;20296;-77
2023/06/06 01:40:43;;;;;;;3.00;2.80;;;16.00;99.90;;;;;;5094300;28;20766;-76
2023/06/06 01:43:11;;;;;;;2.90;2.70;;;16.00;99.90;;;;;;5098419;28;20218;-76
2023/06/06 01:45:40;;;;;;;3.15;2.95;;;16.00;99.90;;;;;;5098550;28;20218;-77
2023/06/06 01:48:08;;;;;;;3.40;3.20;;;16.00;99.90;;;;;;5094832;28;22022;-78
2023/06/06 01:50:35;;;;;;;3.58;3.38;;;16.00;99.90;;;;;;5097117;28;20212;-77
2023/06/06 01:53:02;;;;;;;3.75;3.47;;;16.00;99.90;;;;;;5095441;28;20207;-76
2023/06/06 01:55:31;;;;;;;4.40;4.10;;;16.00;99.90;;;;;;5095692;28;20198;-77
2023/06/06 01:57:58;;;;;;;6.53;3.95;;;15.90;99.90;;;;;;5092884;28;20239;-75
2023/06/06 02:00:25;;;;;;;3.92;3.63;;;15.90;99.90;;;;;;5088803;28;20228;-77
2023/06/06 02:02:52;;;;;;;5.63;5.22;;;15.90;99.90;;;;;;5090793;28;20687;-77
2023/06/06 02:05:20;;;;;;;3.92;3.60;;;15.90;99.90;;;;;;5094994;28;20303;-76
2023/06/06 02:07:49;;;;;;;4.32;4.03;;;15.80;99.90;;;;;;5091422;28;20611;-76
2023/06/06 02:10:16;;;;;;;4.35;4.05;;;15.80;99.90;;;;;;5096997;28;20882;-77
2023/06/06 02:12:45;;;;;;;4.35;4.03;;;15.70;99.90;;;;;;5096114;28;20240;-76
2023/06/06 02:15:13;;;;;;;4.22;3.92;;;15.60;99.90;;;;;;5092822;28;20216;-76
2023/06/06 02:17:40;;;;;;;3.92;3.63;;;15.60;99.90;;;;;;5092295;28;20200;-77
2023/06/06 02:20:09;;;;;;;3.72;3.53;;;15.60;99.90;;;;;;5094546;28;20250;-77
2023/06/06 02:22:36;;;;;;;3.30;3.00;;;15.70;99.90;;;;;;5092267;28;20350;-76
2023/06/06 02:25:04;;;;;;;3.83;3.40;;;15.60;99.90;;;;;;5093654;28;20278;-77
2023/06/06 02:27:34;;;;;;;4.18;3.88;;;15.60;99.90;;;;;;5096071;28;20208;-77
2023/06/06 02:30:03;;;;;;;3.50;3.30;;;15.60;99.90;;;;;;5094060;28;20606;-76
2023/06/06 02:32:31;;;;;;;3.58;3.33;;;15.60;99.90;;;;;;5093098;28;20225;-76
2023/06/06 02:34:59;;;;;;;3.83;3.53;;;15.60;99.90;;;;;;5097809;28;20225;-77
2023/06/06 02:37:26;;;;;;;4.20;3.80;;;15.50;99.90;;;;;;5095486;28;20197;-77
2023/06/06 02:39:54;;;;;;;4.30;4.00;;;15.50;99.90;;;;;;5094986;28;20205;-77
2023/06/06 02:42:20;;;;;;;4.25;3.95;;;15.40;99.90;;;;;;5092171;28;20248;-76
2023/06/06 02:44:47;;;;;;;3.90;3.60;;;15.40;99.90;;;;;;5092983;28;20237;-77
2023/06/06 02:47:16;;;;;;;4.00;3.70;;;15.30;99.90;;;;;;5093842;28;20294;-77
2023/06/06 02:49:43;;;;;;;4.55;4.18;;;15.30;99.90;;;;;;5093680;28;20287;-76
2023/06/06 02:52:10;;;;;;;4.53;4.20;;;15.30;99.90;;;;;;5093383;28;20218;-76
2023/06/06 02:54:37;;;;;;;4.13;3.75;;;15.30;99.90;;;;;;5092622;28;20205;-77
2023/06/06 02:57:04;;;;;;;4.10;3.80;;;15.20;99.90;;;;;;5092412;28;20303;-77
2023/06/06 02:59:31;;;;;;;4.50;4.05;;;15.20;99.90;;;;;;5094015;28;20198;-75
2023/06/06 03:01:58;;;;;;;3.90;3.60;;;15.20;99.90;;;;;;5093240;28;20217;-77
2023/06/06 03:04:26;;;;;;;4.10;3.80;;;15.10;99.90;;;;;;5090759;28;20233;-76
2023/06/06 03:06:53;;;;;;;3.75;3.47;;;15.10;99.90;;;;;;5093969;28;20288;-75
2023/06/06 03:09:22;;;;;;;3.53;3.33;;;15.10;99.90;;;;;;5094772;28;20198;-76
2023/06/06 03:11:49;;;;;;;3.70;3.35;;;15.20;99.90;;;;;;5094956;28;20248;-76
2023/06/06 03:14:16;;;;;;;3.80;3.50;;;15.20;99.90;;;;;;5092892;28;20197;-76
2023/06/06 03:16:43;;;;;;;3.63;3.33;;;15.20;99.90;;;;;;5092227;28;20288;-76
2023/06/06 03:19:11;;;;;;;3.05;2.85;;;15.10;99.90;;;;;;5092916;28;20228;-76
2023/06/06 03:21:41;;;;;;;2.92;2.72;;;15.10;99.90;;;;;;5089742;28;20224;-77
2023/06/06 03:24:08;;;;;;;2.95;2.75;;;15.20;99.90;;;;;;5094135;28;20571;-77
2023/06/06 03:26:36;;;;;;;3.10;2.90;;;15.20;99.90;;;;;;5095960;28;20209;-77
2023/06/06 03:29:03;;;;;;;3.08;2.80;;;15.20;99.90;;;;;;5092940;28;20208;-76
2023/06/06 03:31:30;;;;;;;4.25;3.30;;;15.10;99.90;;;;;;5091068;28;20678;-76
2023/06/06 03:33:58;;;;;;;2.65;2.55;;;15.20;99.90;;;;;;5093297;28;20204;-77
2023/06/06 03:36:26;;;;;;;3.67;3.10;;;15.20;99.90;;;;;;5095475;28;20231;-78
2023/06/06 03:38:54;;;;;;;3.80;3.50;;;15.10;99.90;;;;;;5096464;28;20292;-76
2023/06/06 03:41:21;;;;;;;3.05;2.85;;;15.10;99.90;;;;;;5091047;28;20304;-77
2023/06/06 03:43:48;;;;;;;3.78;3.17;;;15.10;99.90;;;;;;5094694;28;20254;-76
2023/06/06 03:46:15;;;;;;;3.20;3.00;;;15.10;99.90;;;;;;5091210;28;20698;-77
2023/06/06 03:48:42;;;;;;;3.00;2.80;;;15.10;99.90;;;;;;5095274;28;20243;-77
2023/06/06 03:51:09;;;;;;;3.22;2.65;;;15.10;99.90;;;;;;5095402;28;20240;-75
2023/06/06 03:53:36;;;;;;;2.80;2.60;;;15.10;99.90;;;;;;5093737;28;20193;-76
2023/06/06 03:56:06;;;;;;;3.05;2.85;;;15.20;99.90;;;;;;5095412;28;20194;-77
2023/06/06 03:58:33;;;;;;;2.90;2.70;;;15.20;99.90;;;;;;5089299;28;20202;-78
2023/06/06 04:01:01;;;;;;;2.88;2.67;;;15.20;99.90;;;;;;5092643;28;20217;-76
2023/06/06 04:03:36;;;;;;;3.35;3.15;;;15.30;99.90;;;;;;5096522;28;20193;-77
2023/06/06 04:06:04;;;;;;;3.55;3.25;;;15.30;99.90;;;;;;5097346;28;20211;-76
2023/06/06 04:08:31;;;;;;;2.95;2.75;;;15.20;99.90;;;;;;5092987;28;20221;-76
2023/06/06 04:10:58;;;;;;;3.42;3.20;;;15.30;99.90;;;;;;5099039;28;20218;-76
2023/06/06 04:13:26;;;;;;;3.25;2.85;;;15.30;99.90;;;;;;5090639;28;20228;-76
2023/06/06 04:15:54;;;;;;;3.10;2.90;;;15.30;99.90;;;;;;5096363;28;20254;-76
2023/06/06 04:18:21;;;;;;;2.83;2.58;;;15.30;99.90;;;;;;5089445;28;20674;-76
2023/06/06 04:20:48;;;;;;;2.78;2.60;;;15.30;99.90;;;;;;5097903;28;20316;-75
2023/06/06 04:23:15;;;;;;;2.95;2.75;;;15.30;99.90;;;;;;5092772;28;20735;-77
2023/06/06 04:25:42;;;;;;;3.00;2.80;;;15.30;99.90;;;;;;5096252;28;20208;-77
2023/06/06 04:28:09;;;;;;;3.35;3.15;;;15.30;99.90;;;;;;5089980;28;20254;-76
2023/06/06 04:30:37;;;;;;;3.00;2.80;;;15.30;99.90;;;;;;5092804;28;20244;-78
2023/06/06 04:33:05;;;;;;;3.35;3.13;;;15.30;99.90;;;;;;5096596;28;20680;-76
2023/06/06 04:35:31;;;;;;;2.67;2.47;;;15.20;99.90;;;;;;5090414;28;20197;-76
2023/06/06 04:37:58;;;;;;;2.70;2.50;;;15.20;99.90;;;;;;5095551;28;20933;-77
2023/06/06 04:40:32;;;;;;;2.78;2.58;;;15.20;99.90;;;;;;5092085;28;20278;-76
2023/06/06 04:43:00;;;;;;;2.80;2.60;;;15.30;99.90;;;;;;5095657;28;20216;-76
2023/06/06 04:45:28;;;;;;;2.78;2.58;;;15.30;99.90;;;;;;5090449;28;20220;-77
2023/06/06 04:47:57;;;;;;;2.42;2.30;;;15.30;99.90;;;;;;5094413;28;20225;-76
2023/06/06 04:50:24;;;;;;;4.65;2.60;;;15.30;99.90;;;;;;5092094;28;20216;-77
2023/06/06 04:52:51;;;;;;;2.60;2.40;;;15.30;99.90;;;;;;5093160;28;20808;-76
2023/06/06 04:55:18;;;;;;;3.40;2.75;;;15.30;99.90;;;;;;5094002;28;20600;-77
2023/06/06 04:57:45;;;;;;;3.15;2.85;;;15.30;99.90;;;;;;5099574;28;20666;-76
2023/06/06 05:00:13;;;;;;;3.17;2.88;;;15.30;99.90;;;;;;5095735;28;20208;-77
2023/06/06 05:02:40;;;;;;;3.17;2.88;;;15.40;99.90;;;;;;5098923;28;20227;-76
2023/06/06 05:05:10;;;;;;;2.90;2.70;;;15.40;99.90;;;;;;5093424;28;20221;-77
2023/06/06 05:07:37;;;;;;;4.60;3.90;;;15.50;99.90;;;;;;5098812;28;20194;-75
2023/06/06 05:10:04;;;;;;;4.45;3.45;;;15.50;99.90;;;;;;5097556;28;20223;-75
2023/06/06 05:12:32;;;;;;;3.35;3.08;;;15.60;99.90;;;;;;5093701;28;20613;-76
2023/06/06 05:14:58;;;;;;;3.25;3.00;;;15.60;99.90;;;;;;5097190;28;20200;-77
2023/06/06 05:17:27;;;;;;;3.50;3.20;;;15.60;99.90;;;;;;5095196;28;20615;-76
2023/06/06 05:19:55;;;;;;;2.97;2.78;;;15.50;99.90;;;;;;5095376;28;20198;-77
2023/06/06 05:22:23;;;;;;;2.78;2.67;;;15.60;99.90;;;;;;5092711;28;20587;-76
2023/06/06 05:24:50;;;;;;;2.40;2.20;;;15.60;99.90;;;;;;5102053;28;20236;-77
2023/06/06 05:27:17;;;;;;;1.85;1.75;;;15.70;99.90;;;;;;5097572;28;20304;-77
2023/06/06 05:29:44;;;;;;;2.60;2.40;;;15.80;99.90;;;;;;5094827;28;20202;-76
2023/06/06 05:32:13;;;;;;;2.78;2.58;;;16.00;99.90;;;;;;5093852;28;20221;-77
2023/06/06 05:34:40;;;;;;;2.42;2.22;;;16.00;99.90;;;;;;5092140;28;20846;-76
2023/06/06 05:37:07;;;;;;;3.13;2.88;;;16.10;99.90;;;;;;5097688;28;20197;-76
2023/06/06 05:39:35;;;;;;;2.67;2.47;;;16.10;99.90;;;;;;5096720;28;20574;-77
2023/06/06 05:42:02;;;;;;;3.13;2.92;;;16.10;99.90;;;;;;5096341;28;20213;-76
2023/06/06 05:44:29;;;;;;;2.25;2.15;;;16.00;99.90;;;;;;5097047;28;20205;-76
2023/06/06 05:46:56;;;;;;;3.50;2.75;;;16.10;99.90;;;;;;5094557;28;20770;-76
2023/06/06 05:49:24;;;;;;;2.50;2.30;;;16.10;99.90;;;;;;5091943;28;20232;-76
2023/06/06 05:51:52;;;;;;;2.97;2.78;;;16.10;99.90;;;;;;5093013;28;20597;-77
2023/06/06 05:54:19;;;;;;;2.85;2.65;;;16.10;99.90;;;;;;5097367;28;20228;-76
2023/06/06 05:56:47;;;;;;;2.95;2.75;;;16.10;99.90;;;;;;5094901;28;20217;-76
2023/06/06 05:59:14;;;;;;;2.53;2.40;;;16.10;99.90;;;;;;5091101;28;20286;-77
2023/06/06 06:01:44;;;;;;;2.67;2.47;;;16.20;99.90;;;;;;5097342;28;20257;-76
2023/06/06 06:04:11;;;;;;;2.75;2.50;;;16.30;99.90;;;;;;5093164;28;20915;-76
2023/06/06 06:06:38;;;;;;;2.88;2.55;;;16.30;99.90;;;;;;5094607;28;20301;-77
2023/06/06 06:09:05;;;;;;;2.80;2.60;;;16.30;99.90;;;;;;5095025;28;20205;-77
2023/06/06 06:11:32;;;;;;;2.90;2.70;;;16.30;99.90;;;;;;5096083;28;20236;-77
2023/06/06 06:14:00;;;;;;;2.42;2.33;;;16.40;99.90;;;;;;5100038;28;20228;-76
2023/06/06 06:16:27;;;;;;;2.60;2.40;;;16.50;99.90;;;;;;5094718;28;20190;-77
2023/06/06 06:18:54;;;;;;;2.75;2.55;;;16.50;99.90;;;;;;5097262;28;20201;-78
2023/06/06 06:21:21;;;;;;;2.92;2.72;;;16.60;99.90;;;;;;5094098;28;20252;-75
2023/06/06 06:23:49;;;;;;;2.50;2.40;;;16.60;99.90;;;;;;5092822;28;20197;-75
2023/06/06 06:26:16;;;;;;;2.70;2.50;;;16.70;99.90;;;;;;5092119;28;20309;-76
2023/06/06 06:28:44;;;;;;;2.45;2.35;;;16.60;99.90;;;;;;5094332;28;20720;-76
2023/06/06 06:31:12;;;;;;;3.15;2.83;;;16.60;99.90;;;;;;5096331;28;20575;-77
2023/06/06 06:33:39;;;;;;;7.10;3.50;;;16.70;99.90;;;;;;5091282;28;20194;-76
2023/06/06 06:36:06;;;;;;;10.93;5.93;;;16.70;99.90;;;;;;5100443;28;20189;-76
2023/06/06 06:38:33;;;;;;;8.80;5.00;;;16.80;99.90;;;;;;5090765;28;20283;-78
2023/06/06 06:41:00;;;;;;;4.65;3.80;;;16.90;99.90;;;;;;5093378;28;20209;-77
2023/06/06 06:43:27;;;;;;;3.50;2.88;;;16.90;99.90;;;;;;5094766;28;20650;-78
2023/06/06 06:45:54;;;;;;;3.28;2.85;;;16.90;99.90;;;;;;5095051;28;20241;-77
2023/06/06 06:48:23;;;;;;;3.60;3.05;;;17.00;99.90;;;;;;5092845;28;20618;-77
2023/06/06 06:50:50;;;;;;;2.72;2.53;;;17.00;99.90;;;;;;5096314;28;20262;-77
2023/06/06 06:53:17;;;;;;;13.95;5.85;;;17.00;99.90;;;;;;5099215;28;20201;-77
2023/06/06 06:55:46;;;;;;;5.53;3.42;;;17.00;99.90;;;;;;5099546;28;20220;-76
2023/06/06 06:58:25;;;;;;;3.47;3.17;;;17.00;99.90;;;;;;5099820;28;20212;-77
2023/06/06 07:00:52;;;;;;;3.65;3.00;;;17.00;99.90;;;;;;5095548;28;20217;-77
2023/06/06 07:03:20;;;;;;;3.05;2.85;;;17.10;99.90;;;;;;5091306;28;20682;-77
2023/06/06 07:05:48;;;;;;;3.88;3.00;;;17.20;99.90;;;;;;5095822;28;20312;-78
2023/06/06 07:08:15;;;;;;;3.13;2.92;;;17.20;99.90;;;;;;5092333;28;20212;-77
2023/06/06 07:10:43;;;;;;;7.50;2.95;;;17.30;99.90;;;;;;5100866;28;20243;-76
2023/06/06 07:13:13;;;;;;;3.45;2.90;;;17.30;99.90;;;;;;5096172;28;20246;-77
2023/06/06 07:15:40;;;;;;;3.00;2.80;;;17.50;99.90;;;;;;5096196;28;20807;-77
2023/06/06 07:18:07;;;;;;;2.90;2.63;;;17.70;99.90;;;;;;5094633;28;20201;-77
2023/06/06 07:23:01;;;;;;;3.58;2.42;;;18.10;99.90;;;;;;5103906;22;20825;-71
2023/06/06 07:25:28;;;;;;;2.60;2.40;;;18.30;99.90;;;;;;5081345;28;20648;-70
2023/06/06 07:27:57;;;;;;;2.70;2.50;;;18.50;99.90;;;;;;5076937;28;20306;-71
2023/06/06 07:30:24;;;;;;;2.70;2.50;;;18.70;99.90;;;;;;5078127;28;20569;-71
2023/06/06 07:32:51;;;;;;;2.60;2.40;;;18.80;99.90;;;;;;5081488;28;20201;-71
2023/06/06 07:35:20;;;;;;;2.80;2.60;;;19.10;99.90;;;;;;5062535;28;20226;-73
2023/06/06 07:37:47;;;;;;;3.00;2.80;;;19.10;99.90;;;;;;5080167;28;20225;-72
2023/06/06 07:40:16;;;;;;;5.47;2.70;;;19.20;99.90;;;;;;5068754;28;20202;-71
2023/06/06 07:42:44;;;;;;;3.63;2.85;;;19.20;99.90;;;;;;5081314;28;20206;-71
2023/06/06 07:45:12;;;;;;;2.97;2.65;;;19.00;99.90;;;;;;5060976;28;20222;-72
2023/06/06 07:47:40;;;;;;;3.15;2.85;;;19.00;99.90;;;;;;5079098;28;20252;-71
2023/06/06 07:50:08;;;;;;;3.22;2.92;;;19.00;99.90;;;;;;5078837;28;20262;-72
2023/06/06 07:52:36;;;;;;;2.85;2.65;;;19.00;99.90;;;;;;5084896;28;20301;-72
2023/06/06 07:55:04;;;;;;;2.78;2.58;;;19.00;99.90;;;;;;5080366;28;20221;-72
2023/06/06 07:57:33;;;;;;;2.72;2.45;;;19.10;99.90;;;;;;5080286;28;20284;-71
2023/06/06 08:00:00;;;;;;;3.03;2.83;;;19.20;99.90;;;;;;5077702;28;20558;-73
2023/06/06 08:02:27;;;;;;;3.95;2.75;;;19.20;99.90;;;;;;5081747;28;20279;-72
2023/06/06 08:04:54;;;;;;;2.92;2.72;;;19.40;99.90;;;;;;5084924;28;20313;-72
2023/06/06 08:07:21;;;;;;;2.45;2.25;;;19.60;99.90;;;;;;5084628;28;20614;-73
2023/06/06 08:09:48;;;;;;;6.22;2.60;;;19.70;99.90;;;;;;5082319;28;20230;-73
2023/06/06 08:12:15;;;;;;;5.75;3.05;;;19.70;99.90;;;;;;5094156;28;20213;-73
2023/06/06 08:14:44;;;;;;;6.55;3.10;;;19.80;99.90;;;;;;5096832;28;20224;-73
2023/06/06 08:17:11;;;;;;;3.40;2.60;;;19.80;99.90;;;;;;5098541;28;20196;-73
2023/06/06 08:19:38;;;;;;;3.92;2.72;;;19.80;99.90;;;;;;5085860;28;20198;-73
2023/06/06 08:22:06;;;;;;;3.22;2.97;;;20.00;99.90;;;;;;5066901;28;20209;-73
2023/06/06 08:24:33;;;;;;;7.15;3.10;;;20.10;99.90;;;;;;5083388;28;20229;-73
2023/06/06 08:27:00;;;;;;;2.95;2.75;;;20.20;99.90;;;;;;5086139;28;20294;-72
2023/06/06 08:29:27;;;;;;;3.35;3.05;;;20.30;99.90;;;;;;5071083;28;20211;-72
2023/06/06 08:31:56;;;;;;;3.22;2.65;;;20.40;99.90;;;;;;5088371;28;20363;-72
2023/06/06 08:34:23;;;;;;;2.78;2.58;;;20.50;99.90;;;;;;5091658;28;20252;-72
2023/06/06 08:36:51;;;;;;;2.45;2.35;;;20.50;99.90;;;;;;5083621;28;20205;-72
2023/06/06 08:39:19;;;;;;;2.95;2.75;;;20.70;99.90;;;;;;5083748;28;20929;-72
2023/06/06 08:41:51;;;;;;;4.05;3.03;;;20.80;99.90;;;;;;5089076;28;20256;-72
2023/06/06 08:44:21;;;;;;;3.45;3.15;;;20.80;99.90;;;;;;5085535;28;20222;-72
2023/06/06 08:46:50;;;;;;;3.58;3.00;;;20.70;99.90;;;;;;5074731;28;20225;-73
2023/06/06 08:49:19;;;;;;;2.85;2.60;;;20.50;99.90;;;;;;5082987;28;20911;-72
2023/06/06 08:51:46;;;;;;;2.95;2.65;;;20.50;99.90;;;;;;5089478;28;20288;-72
2023/06/06 08:54:13;;;;;;;2.60;2.40;;;20.70;99.90;;;;;;5085557;28;20270;-72
2023/06/06 08:56:44;;;;;;;2.95;2.38;;;20.90;99.90;;;;;;5088039;28;20194;-74
2023/06/06 08:59:11;;;;;;;2.60;2.40;;;21.20;99.90;;;;;;5084119;28;20221;-73
2023/06/06 09:01:39;;;;;;;2.70;2.50;;;21.60;99.90;;;;;;5091831;28;20230;-73
2023/06/06 09:04:07;;;;;;;3.22;2.92;;;22.10;99.90;;;;;;5084747;28;20221;-74
2023/06/06 09:06:40;;;;;;;2.75;2.55;;;22.60;99.90;;;;;;5088003;28;20230;-74
2023/06/06 09:09:09;;;;;;;2.80;2.60;;;22.90;99.90;;;;;;5079810;28;20286;-74
2023/06/06 09:11:36;;;;;;;2.88;2.67;;;22.80;99.90;;;;;;5082249;28;20202;-75
2023/06/06 09:14:05;;;;;;;2.70;2.50;;;22.70;99.90;;;;;;5068276;28;20304;-75
2023/06/06 09:16:33;;;;;;;2.67;2.47;;;22.60;99.90;;;;;;5066104;28;20241;-73
2023/06/06 09:19:02;;;;;;;2.92;2.72;;;22.70;99.90;;;;;;5088168;28;20679;-75
2023/06/06 09:21:30;;;;;;;3.22;2.78;;;22.80;99.90;;;;;;5089876;28;20213;-74
2023/06/06 09:23:58;;;;;;;2.80;2.60;;;22.80;99.90;;;;;;5083584;28;20225;-72
2023/06/06 09:26:26;;;;;;;2.83;2.60;;;22.60;99.90;;;;;;5083231;28;20313;-72
2023/06/06 09:28:55;;;;;;;4.07;2.75;;;22.60;99.90;;;;;;5083379;28;20307;-72
2023/06/06 09:31:23;;;;;;;2.67;2.47;;;22.80;99.90;;;;;;5086615;28;20289;-72
2023/06/06 09:33:51;;;;;;;3.22;2.80;;;22.80;99.90;;;;;;5086144;28;20292;-74
2023/06/06 09:36:22;;;;;;;2.80;2.60;;;22.90;99.90;;;;;;5071415;28;20585;-74
2023/06/06 09:38:50;;;;;;;2.88;2.55;;;22.90;99.90;;;;;;5065502;28;20623;-73
2023/06/06 09:41:19;;;;;;;2.58;2.38;;;23.00;99.90;;;;;;5080191;28;20308;-73
2023/06/06 09:43:46;;;;;;;3.03;2.17;;;23.20;99.90;;;;;;5083378;28;20233;-73
2023/06/06 09:46:16;;;;;;;5.43;2.47;;;23.50;99.90;;;;;;5078620;28;20320;-73
2023/06/06 09:48:53;;;;;;;3.90;2.55;;;23.60;99.90;;;;;;5088270;28;20301;-73
2023/06/06 09:51:21;;;;;;;2.83;2.58;;;23.50;99.90;;;;;;5082304;28;20213;-73
2023/06/06 09:53:51;;;;;;;3.47;2.40;;;23.40;99.90;;;;;;5077580;28;20320;-72
2023/06/06 09:56:23;;;;;;;2.40;2.20;;;23.50;99.90;;;;;;5061000;28;20896;-73
2023/06/06 09:58:54;;;;;;;2.55;2.35;;;23.50;99.90;;;;;;5067816;28;20198;-73
2023/06/06 10:01:27;;;;;;;2.40;2.20;;;23.60;99.90;;;;;;5076641;28;20209;-76
2023/06/06 10:03:57;;;;;;;2.90;2.70;;;23.60;99.90;;;;;;5081472;28;20224;-72
2023/06/06 10:06:26;;;;;;;2.42;2.22;;;23.90;99.90;;;;;;5085851;28;20202;-72
2023/06/06 10:08:57;;;;;;;2.90;2.67;;;23.80;99.90;;;;;;5086767;28;20837;-72
2023/06/06 10:11:27;;;;;;;2.67;2.47;;;23.70;99.90;;;;;;5079696;28;20835;-72
2023/06/06 10:13:55;;;;;;;2.53;2.33;;;23.70;99.90;;;;;;5064848;28;20244;-73
2023/06/06 10:16:22;;;;;;;2.40;2.20;;;23.80;99.90;;;;;;5084777;28;20202;-72
2023/06/06 10:18:50;;;;;;;2.45;2.25;;;24.00;99.90;;;;;;5078036;28;20281;-72
2023/06/06 10:21:17;;;;;;;2.50;2.30;;;24.20;99.90;;;;;;5074118;28;20593;-72
2023/06/06 10:23:46;;;;;;;3.00;2.25;;;24.30;99.90;;;;;;5084326;28;20242;-71
2023/06/06 10:26:19;;;;;;;2.28;2.08;;;24.20;99.90;;;;;;5060437;28;20328;-71
2023/06/06 10:28:54;;;;;;;3.30;2.33;;;24.40;99.90;;;;;;5073576;28;20781;-72
2023/06/06 10:31:31;;;;;;;2.30;2.20;;;24.40;99.90;;;;;;5084705;28;20205;-72
2023/06/06 10:34:01;;;;;;;3.53;2.53;;;24.20;99.90;;;;;;5069836;28;20224;-70
2023/06/06 10:36:40;;;;;;;2.38;2.17;;;24.20;99.90;;;;;;5067265;28;20206;-70
2023/06/06 10:39:22;;;;;;;2.40;2.20;;;24.40;99.90;;;;;;5081314;28;20284;-69
2023/06/06 10:41:52;;;;;;;2.08;1.98;;;24.50;99.90;;;;;;5074612;28;20230;-73
2023/06/06 10:44:27;;;;;;;2.63;2.40;;;24.50;99.90;;;;;;5081452;28;20228;-73
2023/06/06 10:47:28;;;;;;;3.70;2.17;;;24.40;99.90;;;;;;5058446;28;20584;-73
2023/06/06 10:50:17;;;;;;;2.22;2.13;;;24.30;99.90;;;;;;5075541;28;20206;-70
2023/06/06 10:52:45;;;;;;;2.30;2.10;;;24.20;99.90;;;;;;5074130;28;20222;-72
2023/06/06 10:55:16;;;;;;;2.35;2.13;;;24.10;99.90;;;;;;5077927;28;20304;-71
2023/06/06 10:57:52;;;;;;;2.28;2.08;;;24.20;99.90;;;;;;5079932;28;20211;-71
2023/06/06 11:00:25;;;;;;;3.95;2.40;;;24.40;99.90;;;;;;5081898;28;20205;-71
2023/06/06 11:02:55;;;;;;;2.50;2.30;;;24.50;99.90;;;;;;5076754;28;20202;-73
2023/06/06 11:05:22;;;;;;;2.95;2.35;;;24.60;99.90;;;;;;5078001;28;20310;-72
2023/06/06 11:07:50;;;;;;;3.80;2.10;;;24.50;99.90;;;;;;5089827;28;20220;-71
2023/06/06 11:10:22;;;;;;;2.60;2.40;;;24.50;99.90;;;;;;5080141;28;20297;-74
2023/06/06 11:12:50;;;;;;;2.85;2.03;;;24.70;99.90;;;;;;5079040;28;20245;-77
2023/06/06 11:15:30;;;;;;;1.90;1.80;;;24.90;99.90;;;;;;5073502;28;20255;-76
2023/06/06 11:18:02;;;;;;;2.00;1.90;;;25.10;99.90;;;;;;5070828;28;20238;-78
2023/06/06 11:20:30;;;;;;;2.75;2.33;;;25.30;99.90;;;;;;5085488;28;20202;-79
2023/06/06 11:23:01;;;;;;;2.40;2.20;;;25.40;99.90;;;;;;5083459;28;20201;-78
2023/06/06 11:25:30;;;;;;;2.95;1.95;;;25.30;99.90;;;;;;5083087;28;20240;-77
2023/06/06 11:27:59;;;;;;;3.00;2.70;;;25.20;99.90;;;;;;5079113;28;20221;-77
2023/06/06 11:30:31;;;;;;;2.75;2.55;;;25.00;99.90;;;;;;5066299;28;20225;-79
2023/06/06 11:32:58;;;;;;;2.72;2.53;;;25.00;99.90;;;;;;5084908;28;20400;-79
2023/06/06 11:35:28;;;;;;;3.15;2.30;;;25.00;99.90;;;;;;5063106;28;20649;-79
2023/06/06 11:37:55;;;;;;;2.95;2.33;;;25.20;99.90;;;;;;5087604;28;20254;-79
2023/06/06 11:40:25;;;;;;;2.75;2.50;;;25.20;99.90;;;;;;5083173;28;20201;-81
2023/06/06 11:42:53;;;;;;;3.60;2.40;;;25.20;99.90;;;;;;5082553;28;20255;-80
2023/06/06 11:45:20;;;;;;;3.13;2.30;;;25.20;99.90;;;;;;5068677;28;20640;-79
2023/06/06 11:47:51;;;;;;;4.00;2.53;;;25.40;99.90;;;;;;5080829;28;20623;-81
2023/06/06 11:50:28;;;;;;;3.42;2.40;;;25.40;99.90;;;;;;5079336;28;20197;-81
2023/06/06 11:52:55;;;;;;;3.00;2.80;;;25.40;99.90;;;;;;5079222;28;20202;-78
2023/06/06 11:55:36;;;;;;;2.65;2.42;;;25.50;99.90;;;;;;5088431;28;20849;-79
2023/06/06 11:58:04;;;;;;;2.03;1.92;;;25.50;99.90;;;;;;5084894;28;20201;-78
2023/06/06 12:00:31;;;;;;;2.58;2.10;;;25.20;99.90;;;;;;5083884;28;20202;-82
2023/06/06 12:03:01;;;;;;;2.65;2.10;;;25.30;99.90;;;;;;5070952;28;20208;-79
2023/06/06 12:05:28;;;;;;;3.15;2.50;;;25.30;99.90;;;;;;5083383;28;20230;-79
2023/06/06 12:07:59;;;;;;;2.60;2.40;;;25.60;99.90;;;;;;5061399;28;20213;-80
2023/06/06 12:10:28;;;;;;;3.35;2.58;;;25.80;99.90;;;;;;5082456;28;20212;-80
2023/06/06 12:12:56;;;;;;;2.47;2.25;;;26.00;99.90;;;;;;5091294;28;20201;-80
2023/06/06 12:15:27;;;;;;;3.55;2.20;;;26.30;99.90;;;;;;5069973;28;20218;-80
2023/06/06 12:17:54;;;;;;;2.40;2.20;;;26.30;99.90;;;;;;5080137;28;20225;-80
2023/06/06 12:20:26;;;;;;;2.17;2.00;;;26.20;99.90;;;;;;5087246;28;20206;-81
2023/06/06 12:22:53;;;;;;;4.38;2.13;;;26.10;99.90;;;;;;5085596;28;20236;-83
2023/06/06 12:25:27;;;;;;;2.63;2.25;;;26.20;99.90;;;;;;5068512;28;20230;-79
2023/06/06 12:27:56;;;;;;;6.97;2.25;;;26.10;99.90;;;;;;5083211;28;20253;-79
2023/06/06 12:30:33;;;;;;;2.20;2.08;;;26.10;99.90;;;;;;5072651;28;20221;-81
2023/06/06 12:33:02;;;;;;;3.60;1.92;;;26.10;99.90;;;;;;5084950;28;20234;-79
2023/06/06 12:35:31;;;;;;;2.47;2.17;;;26.10;99.90;;;;;;5083597;28;20249;-79
2023/06/06 12:38:01;;;;;;;2.30;2.10;;;26.10;99.90;;;;;;5050870;28;20204;-82
2023/06/06 12:40:33;;;;;;;3.05;1.90;;;25.80;99.90;;;;;;5083821;28;20406;-82
2023/06/06 12:43:03;;;;;;;2.80;1.90;;;25.40;99.90;;;;;;5083293;28;20213;-79
2023/06/06 12:45:30;;;;;;;3.40;2.05;;;25.00;99.90;;;;;;5076392;28;20317;-81
2023/06/06 12:47:58;;;;;;;2.08;1.98;;;24.80;99.90;;;;;;5068532;28;20296;-81
2023/06/06 12:50:25;;;;;;;3.28;1.98;;;24.60;99.90;;;;;;5081557;28;20664;-79
2023/06/06 12:52:54;;;;;;;3.10;2.15;;;24.50;99.90;;;;;;5070965;28;20285;-79
2023/06/06 12:55:21;;;;;;;2.10;1.90;;;24.30;99.90;;;;;;5087631;28;20324;-78
2023/06/06 12:57:49;;;;;;;7.60;1.90;;;24.10;99.90;;;;;;5085280;28;20220;-78